CCN2 weather

Grand Manan Airport
Grand Manan, New Brunswick, Canada

Public forecast

Using degrees Celsius for public forecast. Weather courtesy of forecast.io.

METAR (pilot weather report)

Closest report is Saint John Airport, 52.8 nm (97.8 km) NE. Retrieved 2019/04/23 22:39 UTC (0 seconds ago):

CYSJ 232239Z 03011G17KT 3SM -DZ BR OVC007 05/05 A2983 RMK SC8 SLP106

TAF (pilot weather forecast)

Closest forecast is Saint John Airport, 52.8 nm (97.8 km) NE. Retrieved 2019/04/23 18:42 UTC (4 hours ago):

TAF CYSJ 231739Z 2318/2406 06012G22KT P6SM -RA OVC008 TEMPO 2318/2403 2SM -RA BR OVC004 BECMG 2322/2324 02010KT FM240300 36010KT 2SM -RA -DZ SCT003 OVC005 RMK NXT FCST BY 240000Z